createdAt,value
2018-07-16T00:00:25.521Z,1.97
2018-07-16T00:04:19.531Z,1.50
2018-07-16T00:08:13.511Z,1.70
2018-07-16T00:12:07.563Z,1.80
2018-07-16T00:16:01.489Z,2.13
2018-07-16T00:19:55.410Z,3.47
2018-07-16T00:23:49.310Z,2.43
2018-07-16T00:27:43.322Z,2.60
2018-07-16T00:31:37.264Z,2.20
2018-07-16T00:35:31.202Z,1.73
2018-07-16T00:39:25.150Z,1.60
2018-07-16T00:43:19.086Z,1.83
2018-07-16T00:47:13.008Z,1.77
2018-07-16T00:51:07.111Z,1.30
2018-07-16T00:55:01.082Z,1.20
2018-07-16T00:58:54.991Z,1.60
2018-07-16T01:02:48.959Z,1.57
2018-07-16T01:06:42.950Z,1.63
2018-07-16T01:10:36.372Z,1.60
2018-07-16T01:14:30.382Z,1.60
2018-07-16T01:18:24.316Z,1.33
2018-07-16T01:22:18.023Z,1.57
2018-07-16T01:26:13.229Z,1.60
2018-07-16T01:30:07.208Z,1.77
2018-07-16T01:34:01.207Z,1.80
2018-07-16T01:37:55.139Z,1.60
2018-07-16T01:41:49.091Z,2.00
2018-07-16T01:45:43.036Z,1.60
2018-07-16T01:49:36.947Z,1.73
2018-07-16T01:53:30.928Z,1.90
2018-07-16T01:57:24.988Z,1.53
2018-07-16T02:01:19.452Z,1.70
2018-07-16T02:05:12.856Z,1.70
2018-07-16T02:09:06.787Z,1.50
2018-07-16T02:13:00.696Z,1.53
2018-07-16T02:16:54.679Z,1.40
2018-07-16T02:20:49.728Z,1.40
2018-07-16T02:24:43.762Z,1.80
2018-07-16T02:28:37.771Z,1.83
2018-07-16T02:32:31.694Z,1.80
2018-07-16T02:36:25.716Z,2.27
2018-07-16T02:40:19.673Z,1.73
2018-07-16T02:44:13.639Z,2.20
2018-07-16T02:48:07.629Z,2.20
2018-07-16T02:52:01.708Z,1.93
2018-07-16T02:55:55.671Z,2.10
2018-07-16T02:59:49.104Z,2.17
2018-07-16T03:03:43.122Z,1.90
2018-07-16T03:07:37.106Z,2.30
2018-07-16T03:11:31.054Z,2.22
2018-07-16T03:15:24.951Z,2.30
2018-07-16T03:19:18.914Z,2.20
2018-07-16T03:23:12.888Z,2.20
2018-07-16T03:27:06.901Z,2.53
2018-07-16T03:31:00.845Z,2.30
2018-07-16T03:34:54.714Z,2.23
2018-07-16T03:38:48.598Z,2.03
2018-07-16T03:42:42.575Z,2.00
2018-07-16T03:46:36.478Z,2.10
2018-07-16T03:50:30.415Z,2.70
2018-07-16T03:54:24.498Z,2.45
2018-07-16T03:58:18.442Z,2.37
2018-07-16T04:02:12.553Z,2.80
2018-07-16T04:06:06.083Z,3.03
2018-07-16T04:10:00.648Z,2.75
2018-07-16T04:13:54.666Z,2.90
2018-07-16T04:17:48.597Z,3.03
2018-07-16T04:21:42.632Z,3.03
2018-07-16T04:25:36.637Z,2.83
2018-07-16T04:29:30.540Z,2.53
2018-07-16T04:33:24.499Z,3.13
2018-07-16T04:37:18.484Z,3.77
2018-07-16T04:41:12.487Z,3.62
2018-07-16T04:45:06.479Z,4.20
2018-07-16T04:49:00.489Z,3.20
2018-07-16T04:52:54.600Z,3.00
2018-07-16T04:56:48.976Z,3.30
2018-07-16T05:00:43.099Z,2.47
2018-07-16T05:04:35.734Z,2.77
2018-07-16T05:08:29.810Z,2.90
2018-07-16T05:12:24.959Z,3.33
2018-07-16T05:16:19.047Z,3.40
2018-07-16T05:20:12.987Z,4.10
2018-07-16T05:24:08.129Z,4.33
2018-07-16T05:28:02.410Z,4.43
2018-07-16T05:31:56.580Z,4.97
2018-07-16T05:35:50.427Z,5.33
2018-07-16T05:39:44.596Z,4.37
2018-07-16T05:43:38.769Z,4.83
2018-07-16T05:47:32.911Z,4.33
2018-07-16T05:51:27.026Z,4.87
2018-07-16T05:55:20.993Z,5.00
2018-07-16T05:59:14.977Z,5.00
2018-07-16T06:03:08.602Z,4.60
2018-07-16T06:07:03.468Z,5.00
2018-07-16T06:10:57.461Z,4.07
2018-07-16T06:14:51.446Z,4.67
2018-07-16T06:18:45.534Z,5.03
2018-07-16T06:22:40.066Z,4.97
2018-07-16T06:26:34.571Z,5.30
2018-07-16T06:30:28.672Z,5.83
2018-07-16T06:34:22.647Z,4.78
2018-07-16T06:38:16.649Z,6.80
2018-07-16T06:42:10.623Z,5.27
2018-07-16T06:46:05.290Z,4.40
2018-07-16T06:49:59.246Z,5.27
2018-07-16T06:53:53.412Z,4.70
2018-07-16T06:57:47.539Z,4.57
2018-07-16T07:01:41.024Z,4.47
2018-07-16T07:05:34.981Z,4.30
2018-07-16T07:09:29.043Z,3.77
2018-07-16T07:13:22.927Z,3.40
2018-07-16T07:17:17.840Z,3.70
2018-07-16T07:21:11.993Z,3.77
2018-07-16T07:25:07.079Z,3.50
2018-07-16T07:29:01.093Z,2.87
2018-07-16T07:32:55.836Z,2.90
2018-07-16T07:36:49.983Z,3.23
2018-07-16T07:40:44.219Z,3.43
2018-07-16T07:44:38.734Z,2.87
2018-07-16T07:48:32.826Z,2.97
2018-07-16T07:52:26.921Z,2.90
2018-07-16T07:56:21.001Z,2.80
2018-07-16T08:00:14.410Z,2.70
2018-07-16T08:04:09.261Z,3.20
2018-07-16T08:08:03.337Z,2.00
2018-07-16T08:11:57.464Z,2.10
2018-07-16T08:15:51.602Z,1.90
2018-07-16T08:19:45.867Z,2.07
2018-07-16T08:23:40.548Z,2.97
2018-07-16T08:27:35.282Z,2.50
2018-07-16T08:31:29.370Z,2.07
2018-07-16T08:35:23.492Z,1.73
2018-07-16T08:39:17.586Z,1.67
2018-07-16T08:43:11.818Z,2.20
2018-07-16T08:47:11.595Z,2.10
2018-07-16T08:51:07.429Z,1.63
2018-07-16T08:55:01.949Z,1.70
2018-07-16T08:58:56.438Z,2.07
2018-07-16T09:02:51.413Z,1.90
2018-07-16T09:06:46.084Z,1.87
2018-07-16T09:10:42.066Z,1.80
2018-07-16T09:14:36.233Z,1.70
2018-07-16T09:18:30.283Z,1.72
2018-07-16T09:22:24.603Z,1.70
2018-07-16T09:26:19.090Z,1.70
2018-07-16T09:30:13.457Z,1.50
2018-07-16T09:34:08.148Z,2.07
2018-07-16T09:38:02.825Z,2.40
2018-07-16T09:41:57.285Z,1.97
2018-07-16T09:45:52.011Z,1.97
2018-07-16T09:49:46.100Z,2.00
2018-07-16T09:53:40.198Z,1.93
2018-07-16T09:57:34.293Z,1.50
2018-07-16T10:01:33.594Z,1.50
2018-07-16T10:05:27.067Z,1.47
2018-07-16T10:09:21.256Z,1.52
2018-07-16T10:13:15.451Z,1.70
2018-07-16T10:17:10.269Z,1.37
2018-07-16T10:21:04.379Z,1.50
2018-07-16T10:24:58.560Z,1.53
2018-07-16T10:28:52.616Z,1.40
2018-07-16T10:32:46.609Z,1.27
2018-07-16T10:36:40.731Z,1.30
2018-07-16T10:40:34.782Z,1.07
2018-07-16T10:44:28.853Z,1.30
2018-07-16T10:48:23.446Z,1.40
2018-07-16T10:52:17.451Z,1.20
2018-07-16T10:56:11.872Z,1.27
2018-07-16T11:00:05.719Z,1.40
2018-07-16T11:03:59.118Z,1.27
2018-07-16T11:07:53.333Z,1.30
2018-07-16T11:11:47.415Z,1.40
2018-07-16T11:15:41.686Z,1.50
2018-07-16T11:19:35.641Z,1.30
2018-07-16T11:23:29.707Z,1.70
2018-07-16T11:27:24.104Z,1.23
2018-07-16T11:31:18.308Z,1.77
2018-07-16T11:35:12.392Z,2.10
2018-07-16T11:39:07.558Z,1.50
2018-07-16T11:43:02.883Z,1.22
2018-07-16T11:46:57.479Z,1.87
2018-07-16T11:50:51.444Z,1.30
2018-07-16T11:54:46.089Z,1.30
2018-07-16T11:58:40.136Z,1.00
2018-07-16T12:02:34.311Z,1.53
2018-07-16T12:06:29.134Z,1.20
2018-07-16T12:10:23.794Z,1.00
2018-07-16T12:14:18.066Z,2.58
2018-07-16T12:18:12.199Z,1.50
2018-07-16T12:22:06.955Z,1.70
2018-07-16T12:26:01.182Z,1.40
2018-07-16T12:29:55.216Z,1.80
2018-07-16T12:33:49.224Z,1.72
2018-07-16T12:37:43.236Z,1.30
2018-07-16T12:41:37.830Z,1.40
2018-07-16T12:45:31.895Z,1.30
2018-07-16T12:49:25.966Z,1.30
2018-07-16T12:53:19.974Z,1.45
2018-07-16T12:57:14.073Z,1.20
2018-07-16T13:01:08.278Z,1.40
2018-07-16T13:05:02.312Z,1.52
2018-07-16T13:08:56.405Z,1.25
2018-07-16T13:12:50.026Z,0.90
2018-07-16T13:16:43.995Z,1.60
2018-07-16T13:20:37.728Z,1.57
2018-07-16T13:24:32.363Z,1.90
2018-07-16T13:28:26.389Z,1.20
2018-07-16T13:32:20.290Z,1.10
2018-07-16T13:36:14.419Z,1.50
2018-07-16T13:40:08.487Z,1.37
2018-07-16T13:44:02.472Z,1.42
2018-07-16T13:47:56.505Z,1.37
2018-07-16T13:51:50.503Z,1.27
2018-07-16T13:55:44.603Z,1.40
2018-07-16T13:59:38.631Z,1.20
2018-07-16T14:03:32.607Z,1.50
2018-07-16T14:07:26.932Z,1.70
2018-07-16T14:11:21.051Z,1.45
2018-07-16T14:15:15.100Z,1.40
2018-07-16T14:19:09.153Z,1.62
2018-07-16T14:23:03.289Z,1.50
2018-07-16T14:26:57.817Z,1.42
2018-07-16T14:30:52.491Z,1.50
2018-07-16T14:34:46.711Z,1.80
2018-07-16T14:38:43.283Z,1.90
2018-07-16T14:42:38.293Z,2.00
2018-07-16T14:46:32.487Z,1.80
2018-07-16T14:50:26.482Z,1.60
2018-07-16T14:54:20.642Z,1.95
2018-07-16T14:58:14.977Z,1.85
2018-07-16T15:02:09.004Z,1.47
2018-07-16T15:06:03.129Z,1.45
2018-07-16T15:09:56.647Z,1.82
2018-07-16T15:13:51.104Z,1.20
2018-07-16T15:17:45.315Z,1.60
2018-07-16T15:21:40.032Z,1.70
2018-07-16T15:25:33.911Z,1.92
2018-07-16T15:29:27.932Z,1.80
2018-07-16T15:33:22.057Z,3.10
2018-07-16T15:37:16.160Z,1.95
2018-07-16T15:41:11.165Z,1.95
2018-07-16T15:45:06.172Z,1.92
2018-07-16T15:49:00.622Z,1.60
2018-07-16T15:52:53.698Z,1.60
2018-07-16T15:56:47.565Z,1.83
2018-07-16T16:00:41.639Z,1.72
2018-07-16T16:04:38.558Z,1.60
2018-07-16T16:08:36.801Z,1.35
2018-07-16T16:16:57.080Z,1.77
2018-07-16T16:21:00.242Z,1.80
2018-07-16T16:25:04.302Z,1.80
2018-07-16T16:29:00.772Z,1.30
2018-07-16T16:32:54.867Z,1.50
2018-07-16T16:36:49.171Z,2.10
2018-07-16T16:40:44.288Z,1.60
2018-07-16T16:44:38.328Z,2.47
2018-07-16T16:48:33.360Z,1.50
2018-07-16T16:52:27.403Z,1.47
2018-07-16T16:56:21.502Z,1.30
2018-07-16T17:00:15.580Z,1.55
2018-07-16T17:04:10.013Z,1.62
2018-07-16T17:08:04.366Z,1.37
2018-07-16T17:11:58.429Z,1.17
2018-07-16T17:15:52.483Z,2.00
2018-07-16T17:19:46.667Z,1.80
2018-07-16T17:23:41.341Z,1.92
2018-07-16T17:27:35.816Z,1.32
2018-07-16T17:31:30.368Z,1.87
2018-07-16T17:35:24.723Z,1.35
2018-07-16T17:39:18.322Z,1.55
2018-07-16T17:43:12.496Z,1.85
2018-07-16T17:47:06.757Z,2.30
2018-07-16T17:51:00.519Z,1.80
2018-07-16T17:54:54.650Z,1.72
2018-07-16T17:58:48.806Z,1.42
2018-07-16T18:02:42.900Z,1.30
2018-07-16T18:06:37.132Z,1.75
2018-07-16T18:10:31.392Z,1.87
2018-07-16T18:14:24.927Z,1.90
2018-07-16T18:18:19.025Z,1.50
2018-07-16T18:22:13.077Z,1.62
2018-07-16T18:26:07.188Z,1.70
2018-07-16T18:30:01.613Z,1.80
2018-07-16T18:33:55.896Z,1.63
2018-07-16T18:37:50.001Z,1.82
2018-07-16T18:41:44.519Z,1.30
2018-07-16T18:45:39.128Z,1.65
2018-07-16T18:49:33.756Z,2.02
2018-07-16T18:53:28.043Z,2.02
2018-07-16T18:57:22.345Z,1.70
2018-07-16T19:01:16.745Z,1.70
2018-07-16T19:05:11.120Z,1.95
2018-07-16T19:09:06.809Z,1.65
2018-07-16T19:13:01.167Z,2.27
2018-07-16T19:16:55.345Z,2.87
2018-07-16T19:20:50.092Z,2.42
2018-07-16T19:24:45.060Z,2.20
2018-07-16T19:28:39.436Z,1.80
2018-07-16T19:32:33.814Z,2.02
2018-07-16T19:36:28.538Z,1.82
2018-07-16T19:40:22.917Z,1.60
2018-07-16T19:44:17.311Z,1.80
2018-07-16T19:48:12.085Z,1.85
2018-07-16T19:52:06.469Z,1.70
2018-07-16T19:56:00.648Z,2.03
2018-07-16T19:59:54.732Z,2.80
2018-07-16T20:03:49.061Z,3.17
2018-07-16T20:07:43.190Z,3.60
2018-07-16T20:11:37.461Z,3.58
2018-07-16T20:15:31.827Z,3.65
2018-07-16T20:19:25.873Z,3.77
2018-07-16T20:23:19.364Z,4.10
2018-07-16T20:27:13.399Z,3.73
2018-07-16T20:31:07.408Z,4.67
2018-07-16T20:35:03.307Z,4.93
2018-07-16T20:38:57.291Z,4.70
2018-07-16T20:42:51.272Z,3.87
2018-07-16T20:46:45.316Z,3.20
2018-07-16T20:50:39.352Z,3.27
2018-07-16T20:54:33.368Z,3.00
2018-07-16T20:58:27.296Z,3.50
2018-07-16T21:02:21.371Z,2.77
2018-07-16T21:06:17.953Z,2.90
2018-07-16T21:10:11.508Z,3.30
2018-07-16T21:14:08.209Z,3.73
2018-07-16T21:18:02.400Z,4.00
2018-07-16T21:21:56.304Z,4.30
2018-07-16T21:25:55.994Z,5.57
2018-07-16T21:29:49.648Z,5.23
2018-07-16T21:33:43.928Z,4.73
2018-07-16T21:37:37.934Z,4.87
2018-07-16T21:41:31.974Z,5.00
2018-07-16T21:45:26.019Z,4.90
2018-07-16T21:49:19.992Z,5.10
2018-07-16T21:53:14.656Z,5.10
2018-07-16T21:57:09.337Z,5.93
2018-07-16T22:01:03.303Z,6.90
2018-07-16T22:04:57.655Z,7.33
2018-07-16T22:08:51.749Z,8.30
2018-07-16T22:12:46.716Z,8.33
2018-07-16T22:16:40.145Z,8.40
2018-07-16T22:20:34.050Z,8.60
2018-07-16T22:24:28.075Z,9.63
2018-07-16T22:28:22.126Z,7.97
2018-07-16T22:32:16.124Z,8.03
2018-07-16T22:36:10.275Z,6.93
2018-07-16T22:40:04.586Z,7.50
2018-07-16T22:43:58.564Z,6.23
2018-07-16T22:47:52.487Z,6.62
2018-07-16T22:51:46.447Z,6.20
2018-07-16T22:55:41.039Z,5.37
2018-07-16T22:59:34.990Z,4.93
2018-07-16T23:03:28.979Z,4.77
2018-07-16T23:07:22.930Z,5.63
2018-07-16T23:11:16.990Z,5.53
2018-07-16T23:15:11.000Z,5.20
2018-07-16T23:19:05.533Z,4.93
2018-07-16T23:22:59.581Z,4.90
2018-07-16T23:26:53.863Z,5.47
2018-07-16T23:30:47.899Z,5.37
2018-07-16T23:34:42.270Z,5.07
2018-07-16T23:38:36.242Z,5.13
2018-07-16T23:42:30.180Z,4.80
2018-07-16T23:46:24.228Z,5.07
2018-07-16T23:50:18.299Z,4.93
2018-07-16T23:54:12.219Z,4.83
2018-07-16T23:58:06.204Z,5.23
